Time;durP1;ratioP1;P1;durP2;ratioP2;P2;SDS_P1;SDS_P2;PMS_P1;PMS_P2;Temp;Humidity;BMP_temperature;BMP_pressure;BME280_temperature;BME280_humidity;BME280_pressure;Samples;Min_cycle;Max_cycle;Signal;HPM_P1;HPM_P2
2022/04/17 00:00:10;;;;;;;;;4.33;3.00;;;;;14.89;38.15;102258.81;5057000;28;45214;-48
2022/04/17 00:02:36;;;;;;;;;2.00;2.00;;;;;14.85;38.03;102252.03;5057324;28;45326;-45
2022/04/17 00:05:03;;;;;;;;;2.00;2.00;;;;;14.82;37.93;102252.28;5057152;28;45251;-46
2022/04/17 00:07:29;;;;;;;;;3.67;3.67;;;;;14.80;37.86;102255.13;5057358;28;45631;-44
2022/04/17 00:09:55;;;;;;;;;4.67;4.00;;;;;14.77;38.13;102243.81;5056867;28;46220;-45
2022/04/17 00:12:23;;;;;;;;;2.00;2.00;;;;;14.71;38.30;102243.41;5056853;28;45179;-46
2022/04/17 00:14:49;;;;;;;;;2.00;2.00;;;;;14.63;38.41;102232.50;5057113;28;45299;-51
2022/04/17 00:17:15;;;;;;;;;3.33;2.67;;;;;14.67;38.43;102236.63;5057399;28;45325;-46
2022/04/17 00:19:40;;;;;;;;;3.00;3.00;;;;;14.67;38.33;102239.28;5056733;28;46291;-45
2022/04/17 00:22:06;;;;;;;;;4.67;2.00;;;;;14.57;38.59;102224.16;5056774;28;45392;-44
2022/04/17 00:24:31;;;;;;;;;3.00;2.67;;;;;14.62;38.30;102236.19;5057108;28;45380;-45
2022/04/17 00:26:59;;;;;;;;;3.00;3.00;;;;;14.60;38.24;102238.13;5057103;28;45288;-45
2022/04/17 00:29:25;;;;;;;;;5.00;2.00;;;;;14.57;38.55;102235.72;5056763;28;46264;-44
2022/04/17 00:31:51;;;;;;;;;4.67;3.00;;;;;14.54;38.44;102233.34;5059767;28;45521;-47
2022/04/17 00:34:16;;;;;;;;;2.33;2.00;;;;;14.39;38.60;102211.41;5060522;28;45451;-44
2022/04/17 00:36:41;;;;;;;;;3.00;3.00;;;;;14.44;38.42;102227.06;5060829;28;45277;-46
2022/04/17 00:39:07;;;;;;;;;4.00;3.00;;;;;14.39;39.01;102221.28;5060429;28;45313;-45
2022/04/17 00:41:32;;;;;;;;;2.67;2.67;;;;;14.38;39.26;102227.63;5060609;28;45454;-45
2022/04/17 00:43:57;;;;;;;;;2.00;2.00;;;;;14.36;38.35;102226.88;5060430;28;45257;-46
2022/04/17 00:46:23;;;;;;;;;4.67;3.00;;;;;14.32;38.69;102222.78;5060512;28;45422;-45
2022/04/17 00:48:48;;;;;;;;;7.33;2.00;;;;;14.28;38.71;102224.03;5059881;28;45355;-44
2022/04/17 00:51:15;;;;;;;;;4.00;4.00;;;;;14.27;38.75;102222.34;5059975;28;45336;-45
2022/04/17 00:53:43;;;;;;;;;6.00;2.33;;;;;14.20;39.05;102219.38;5060514;28;45402;-46
2022/04/17 00:56:09;;;;;;;;;5.00;3.67;;;;;14.18;38.35;102213.28;5060246;28;45444;-46
2022/04/17 00:58:36;;;;;;;;;3.00;3.00;;;;;14.12;38.84;102217.38;5059954;28;45482;-45
2022/04/17 01:01:02;;;;;;;;;4.33;3.33;;;;;14.12;38.96;102220.03;5060190;28;45274;-47
2022/04/17 01:03:28;;;;;;;;;2.00;2.00;;;;;14.09;39.22;102211.44;5060324;28;45429;-47
2022/04/17 01:05:53;;;;;;;;;2.67;2.00;;;;;14.07;38.96;102211.53;5060652;28;45457;-45
2022/04/17 01:08:20;;;;;;;;;3.00;3.00;;;;;14.06;39.29;102212.53;5060447;28;46903;-45
2022/04/17 01:10:45;;;;;;;;;7.00;4.00;;;;;13.99;38.82;102208.72;5060522;28;45277;-47
2022/04/17 01:13:11;;;;;;;;;5.67;4.00;;;;;14.00;38.73;102212.22;5060048;28;45396;-48
2022/04/17 01:15:37;;;;;;;;;2.00;2.00;;;;;13.95;38.38;102205.44;5060142;28;45399;-47
2022/04/17 01:18:04;;;;;;;;;2.00;2.00;;;;;13.90;38.24;102196.13;5059682;28;46118;-46
2022/04/17 01:20:30;;;;;;;;;3.00;3.00;;;;;13.89;38.65;102210.47;5059516;28;45306;-47
2022/04/17 01:28:26;;;;;;;;;6.00;3.00;;;;;13.73;38.41;102187.72;5059724;28;45254;-50
2022/04/17 01:30:56;;;;;;;;;7.00;4.00;;;;;13.77;38.35;102195.47;5059494;28;45313;-45
2022/04/17 01:33:23;;;;;;;;;3.67;3.67;;;;;13.72;38.94;102187.84;5059694;28;45393;-45
2022/04/17 01:35:48;;;;;;;;;7.00;4.00;;;;;13.70;38.20;102189.84;5059636;28;45239;-46
2022/04/17 01:38:14;;;;;;;;;3.67;3.67;;;;;13.66;38.77;102183.91;5059354;28;46276;-45
2022/04/17 01:40:39;;;;;;;;;8.00;6.00;;;;;13.63;38.41;102184.16;5059312;28;45427;-45
2022/04/17 01:43:09;;;;;;;;;5.00;4.00;;;;;13.61;38.52;102188.78;5059627;28;45360;-44
2022/04/17 01:45:34;;;;;;;;;5.33;5.33;;;;;13.56;38.80;102179.44;5059777;28;45384;-44
2022/04/17 01:47:59;;;;;;;;;8.67;5.00;;;;;13.58;38.66;102186.38;5059336;28;45432;-47
2022/04/17 01:50:27;;;;;;;;;7.00;4.33;;;;;13.55;38.40;102180.44;5059088;28;45335;-45
2022/04/17 01:52:52;;;;;;;;;5.00;5.00;;;;;13.56;38.47;102187.47;5059400;28;45282;-46
2022/04/17 01:55:18;;;;;;;;;5.67;3.67;;;;;13.52;38.36;102176.19;5059567;28;45369;-44
2022/04/17 01:57:44;;;;;;;;;6.00;4.00;;;;;13.46;38.45;102180.25;5058782;28;46978;-46
2022/04/17 02:00:11;;;;;;;;;3.00;3.00;;;;;13.42;38.57;102181.47;5057924;28;45393;-52
2022/04/17 02:02:36;;;;;;;;;3.00;3.00;;;;;13.38;38.52;102177.38;5059188;28;45283;-45
2022/04/17 02:05:03;;;;;;;;;2.00;2.00;;;;;13.36;38.36;102186.50;5059348;28;45224;-44
2022/04/17 02:07:29;;;;;;;;;5.00;3.67;;;;;13.36;38.57;102186.50;5059120;28;47160;-45
2022/04/17 02:09:54;;;;;;;;;4.00;4.00;;;;;13.34;38.05;102183.94;5058840;28;45259;-43
2022/04/17 02:12:19;;;;;;;;;4.00;4.00;;;;;13.31;38.40;102181.53;5059164;28;45419;-44
2022/04/17 02:14:46;;;;;;;;;2.67;2.67;;;;;13.28;38.44;102179.13;5059040;28;45374;-48
2022/04/17 02:17:12;;;;;;;;;3.67;3.00;;;;;13.22;38.46;102180.47;5059536;28;46362;-45
2022/04/17 02:19:37;;;;;;;;;3.00;3.00;;;;;13.21;38.40;102172.56;5059928;28;45326;-44
2022/04/17 02:22:03;;;;;;;;;5.00;3.00;;;;;13.21;37.94;102176.09;5059834;28;45474;-45
2022/04/17 02:24:28;;;;;;;;;5.67;2.33;;;;;13.19;38.40;102175.38;5060108;28;45291;-43
2022/04/17 02:26:53;;;;;;;;;5.33;3.00;;;;;13.15;37.94;102173.09;5058917;28;45258;-44
2022/04/17 02:29:19;;;;;;;;;2.67;2.67;;;;;13.11;37.55;102172.50;5059188;28;45243;-45
2022/04/17 02:31:44;;;;;;;;;3.33;3.33;;;;;13.04;37.88;102160.63;5059377;28;45501;-47
2022/04/17 02:34:09;;;;;;;;;2.00;2.00;;;;;13.00;37.82;102153.84;5059128;28;45429;-44
2022/04/17 02:36:35;;;;;;;;;2.33;2.00;;;;;12.99;37.69;102158.34;5058237;28;46293;-49
2022/04/17 02:39:00;;;;;;;;;4.00;2.33;;;;;12.94;37.83;102159.72;5058706;28;45382;-44
2022/04/17 02:41:26;;;;;;;;;5.00;3.33;;;;;12.95;37.97;102161.41;5058707;28;45499;-47
2022/04/17 02:43:51;;;;;;;;;3.00;3.00;;;;;12.91;38.07;102152.78;5058875;28;45396;-44
2022/04/17 02:47:42;;;;;;;;;1.67;1.67;;;;;12.91;38.03;102154.63;5057200;28;47142;-45
2022/04/17 02:49:02;;;;;;;;;3.67;3.67;;;;;12.86;37.88;102146.13;5058272;27;45218;-47
2022/04/17 02:51:28;;;;;;;;;3.67;3.00;;;;;12.83;37.84;102155.25;5058344;28;45538;-46
2022/04/17 02:53:53;;;;;;;;;8.00;4.00;;;;;12.82;38.23;102150.88;5057944;28;45602;-46
2022/04/17 02:56:18;;;;;;;;;3.00;3.00;;;;;12.78;38.27;102143.25;5058329;28;46112;-47
2022/04/17 02:58:44;;;;;;;;;2.00;2.00;;;;;12.76;38.13;102154.03;5058199;28;45412;-45
2022/04/17 03:06:37;;;;;;;;;3.00;3.00;;;;;12.66;38.33;102143.28;5058775;28;45587;-45
2022/04/17 03:09:03;;;;;;;;;3.33;3.33;;;;;12.60;37.97;102129.56;5059283;28;45310;-45
2022/04/17 03:11:29;;;;;;;;;2.33;2.33;;;;;12.57;38.38;102136.03;5059378;28;45475;-46
2022/04/17 03:13:54;;;;;;;;;3.00;3.00;;;;;12.56;38.23;102129.00;5058387;28;45419;-46
2022/04/17 03:16:19;;;;;;;;;4.67;3.67;;;;;12.56;38.35;102131.69;5057963;28;45349;-45
2022/04/17 03:18:45;;;;;;;;;3.00;3.00;;;;;12.53;38.13;102128.41;5057813;28;45368;-47
2022/04/17 03:21:11;;;;;;;;;6.00;2.67;;;;;12.51;38.28;102133.84;5058035;28;45340;-46
2022/04/17 03:23:37;;;;;;;;;3.00;3.00;;;;;12.47;38.44;102125.28;5058065;28;45484;-45
2022/04/17 03:26:03;;;;;;;;;3.00;3.00;;;;;12.44;38.48;102127.34;5057811;28;45476;-44
2022/04/17 03:28:29;;;;;;;;;6.00;6.00;;;;;12.39;38.61;102129.53;5056799;28;45400;-45
2022/04/17 03:30:54;;;;;;;;;4.00;2.67;;;;;12.35;38.89;102128.09;5057799;28;45542;-44
2022/04/17 03:33:19;;;;;;;;;1.67;1.67;;;;;12.31;38.55;102127.50;5058202;28;45501;-43
2022/04/17 03:35:45;;;;;;;;;2.00;2.00;;;;;12.28;38.99;102129.53;5057581;28;46062;-46
2022/04/17 03:38:10;;;;;;;;;3.00;3.00;;;;;12.26;38.76;102123.47;5057625;28;45151;-43
2022/04/17 03:40:36;;;;;;;;;2.33;2.33;;;;;12.23;38.45;102119.25;5057961;28;45511;-43
2022/04/17 03:43:02;;;;;;;;;3.33;3.33;;;;;12.15;38.42;102106.53;5057894;28;45464;-47
2022/04/17 03:45:27;;;;;;;;;6.33;4.33;;;;;12.24;38.60;102124.44;5057652;28;45257;-44
2022/04/17 03:47:52;;;;;;;;;8.00;5.67;;;;;12.21;38.67;102115.84;5057472;28;45221;-46
2022/04/17 03:50:18;;;;;;;;;3.00;3.00;;;;;12.22;38.85;102123.75;5057685;28;45647;-44
2022/04/17 03:52:48;;;;;;;;;3.00;3.00;;;;;12.21;38.57;102118.50;5057598;28;45340;-46
2022/04/17 03:55:14;;;;;;;;;3.00;3.00;;;;;12.17;38.66;102125.91;5057350;28;47298;-44
2022/04/17 03:57:40;;;;;;;;;3.00;3.00;;;;;12.15;38.52;102127.88;5057299;28;45511;-45
2022/04/17 04:00:08;;;;;;;;;6.33;4.00;;;;;12.15;38.37;102125.19;5057459;28;45364;-47
2022/04/17 04:02:33;;;;;;;;;3.33;3.33;;;;;12.12;38.58;102125.44;5057568;28;45310;-45
2022/04/17 04:04:59;;;;;;;;;5.33;2.00;;;;;12.03;38.42;102110.16;5056098;28;45369;-44
2022/04/17 04:07:25;;;;;;;;;11.33;3.67;;;;;11.97;38.73;102106.19;5056660;28;45449;-45
2022/04/17 04:09:51;;;;;;;;;3.00;3.00;;;;;12.01;38.39;102117.47;5057706;28;45286;-45
2022/04/17 04:12:17;;;;;;;;;5.67;5.67;;;;;11.98;38.69;102107.88;5057604;28;45427;-45
2022/04/17 04:14:43;;;;;;;;;6.67;5.00;;;;;11.93;38.65;102103.88;5057098;28;46176;-46
2022/04/17 04:17:09;;;;;;;;;3.00;3.00;;;;;11.83;38.73;102105.56;5057310;28;45215;-46
2022/04/17 04:19:35;;;;;;;;;2.00;2.00;;;;;11.83;38.76;102109.09;5057893;28;45373;-46
2022/04/17 04:22:00;;;;;;;;;3.00;3.00;;;;;11.87;38.79;102115.88;5057934;28;45499;-45
2022/04/17 04:24:26;;;;;;;;;8.00;4.67;;;;;11.81;38.22;102124.34;5057880;28;45849;-46
2022/04/17 04:29:37;;;;;;;;;6.00;3.33;;;;;11.70;38.41;102114.50;5057507;28;45262;-46
2022/04/17 04:32:02;;;;;;;;;4.00;3.67;;;;;11.64;38.54;102108.81;5057924;28;45233;-46
2022/04/17 04:34:28;;;;;;;;;3.00;3.00;;;;;11.63;38.66;102104.44;5057965;28;47165;-44
2022/04/17 04:36:53;;;;;;;;;6.00;3.33;;;;;11.59;39.18;102101.19;5057196;28;45458;-45
2022/04/17 04:39:19;;;;;;;;;3.00;3.00;;;;;11.61;39.06;102106.38;5057075;28;45556;-45
2022/04/17 04:41:45;;;;;;;;;5.67;2.00;;;;;11.55;38.43;102107.72;5057302;28;45419;-46
2022/04/17 04:44:11;;;;;;;;;5.00;5.00;;;;;11.52;38.83;102099.97;5056834;28;45929;-44
2022/04/17 04:46:37;;;;;;;;;2.00;2.00;;;;;11.48;39.24;102112.69;5056551;28;45304;-46
2022/04/17 04:51:46;;;;;;;;;3.67;3.67;;;;;11.41;38.93;102102.59;5057527;28;45518;-46
2022/04/17 04:54:12;;;;;;;;;5.00;3.67;;;;;11.44;39.23;102110.38;5057026;28;46475;-45
2022/04/17 04:56:37;;;;;;;;;5.00;5.00;;;;;11.45;39.03;102110.25;5057257;28;45346;-45
2022/04/17 04:59:04;;;;;;;;;2.67;2.33;;;;;11.41;38.98;102107.94;5056760;28;45590;-45
2022/04/17 05:01:29;;;;;;;;;5.67;5.33;;;;;11.41;38.92;102110.59;5056389;28;45361;-45
2022/04/17 05:03:55;;;;;;;;;4.00;4.00;;;;;11.42;38.69;102114.97;5056816;28;47458;-44
2022/04/17 05:06:20;;;;;;;;;6.33;3.67;;;;;11.41;38.33;102118.59;5056797;28;45203;-44
2022/04/17 05:08:45;;;;;;;;;3.00;3.00;;;;;11.40;39.33;102123.06;5056799;28;45561;-44
2022/04/17 05:11:11;;;;;;;;;3.00;3.00;;;;;11.32;39.09;102104.16;5057077;28;45198;-46
2022/04/17 05:13:38;;;;;;;;;7.33;3.67;;;;;11.34;38.94;102122.72;5056276;28;45443;-43
2022/04/17 05:16:05;;;;;;;;;3.67;2.00;;;;;11.37;38.86;102115.31;5072363;28;45355;-44
2022/04/17 05:18:30;;;;;;;;;4.33;4.33;;;;;11.38;38.96;102129.50;5059914;28;45323;-45
2022/04/17 05:20:56;;;;;;;;;5.33;5.00;;;;;11.39;38.86;102128.53;5060108;28;45430;-46
2022/04/17 05:23:30;;;;;;;;;3.00;3.00;;;;;11.38;38.71;102134.84;5059888;28;46182;-45
2022/04/17 05:25:58;;;;;;;;;6.00;4.67;;;;;11.37;38.52;102133.13;5059667;28;45404;-46
2022/04/17 05:28:23;;;;;;;;;7.33;4.33;;;;;11.27;38.68;102122.31;5059669;28;45335;-45
2022/04/17 05:30:49;;;;;;;;;2.67;2.67;;;;;11.37;38.73;102144.63;5059911;28;45249;-47
2022/04/17 05:33:19;;;;;;;;;3.67;3.00;;;;;11.40;39.63;102139.06;5059567;28;46138;-47
2022/04/17 05:35:45;;;;;;;;;3.00;3.00;;;;;11.46;39.69;102143.06;5059470;28;45337;-44
2022/04/17 05:38:11;;;;;;;;;4.00;4.00;;;;;11.47;38.66;102140.28;5056947;28;45453;-44
2022/04/17 05:40:50;;;;;;;;;3.67;3.00;;;;;11.47;38.61;102128.78;5059370;28;45436;-44
2022/04/17 05:43:16;;;;;;;;;4.00;4.00;;;;;11.36;38.66;102113.63;5058114;28;46323;-46
2022/04/17 05:45:42;;;;;;;;;5.33;4.00;;;;;11.49;38.28;102141.00;5059360;28;45358;-46
2022/04/17 05:48:11;;;;;;;;;4.67;3.00;;;;;11.51;38.31;102146.25;5058789;28;45361;-46
2022/04/17 05:50:38;;;;;;;;;4.00;3.00;;;;;11.49;38.42;102133.03;5057438;28;45498;-45
2022/04/17 05:53:04;;;;;;;;;6.67;3.33;;;;;11.52;37.93;102136.44;5058614;28;47109;-44
2022/04/17 05:55:29;;;;;;;;;3.00;3.00;;;;;11.50;38.25;102141.84;5059216;28;45307;-45
2022/04/17 05:57:55;;;;;;;;;3.00;3.00;;;;;11.49;38.04;102140.16;5059294;28;45315;-44
2022/04/17 06:00:21;;;;;;;;;3.00;2.33;;;;;11.47;38.15;102129.63;5059292;28;45348;-47
2022/04/17 06:02:47;;;;;;;;;4.67;3.00;;;;;11.38;37.94;102113.53;5059235;28;47315;-47
2022/04/17 06:05:13;;;;;;;;;3.00;3.00;;;;;11.45;37.90;102128.03;5059024;28;45293;-45
2022/04/17 06:07:40;;;;;;;;;8.00;3.33;;;;;11.54;38.05;102142.47;5058855;28;45427;-46
2022/04/17 06:10:08;;;;;;;;;5.33;4.00;;;;;11.52;37.73;102142.59;5059026;28;45376;-44
2022/04/17 06:12:34;;;;;;;;;2.00;2.00;;;;;11.54;37.88;102135.31;5058574;28;45593;-44
2022/04/17 06:15:00;;;;;;;;;7.00;5.00;;;;;11.58;37.89;102139.44;5057567;28;46149;-45
2022/04/17 06:17:25;;;;;;;;;6.67;6.00;;;;;11.61;37.83;102139.22;5058888;28;45247;-45
2022/04/17 06:19:51;;;;;;;;;5.00;5.00;;;;;11.63;37.40;102131.97;5059208;28;45346;-45
2022/04/17 06:22:18;;;;;;;;;12.00;5.00;;;;;11.64;37.24;102135.47;5058844;28;46077;-46
2022/04/17 06:24:44;;;;;;;;;4.00;4.00;;;;;11.61;37.41;102135.72;5058649;28;45381;-45
2022/04/17 06:27:09;;;;;;;;;2.33;2.00;;;;;11.61;37.60;102133.03;5058822;28;45313;-47
2022/04/17 06:29:35;;;;;;;;;3.00;3.00;;;;;11.65;37.48;102131.84;5056832;28;45333;-46
2022/04/17 06:32:00;;;;;;;;;5.00;3.00;;;;;11.55;37.73;102114.88;5058755;28;46129;-45
2022/04/17 06:34:26;;;;;;;;;6.67;3.33;;;;;11.70;36.99;102133.16;5058725;28;45438;-47
2022/04/17 06:36:51;;;;;;;;;3.67;3.00;;;;;11.73;37.28;102130.25;5058848;28;45428;-46
2022/04/17 06:39:16;;;;;;;;;3.00;3.00;;;;;11.76;37.38;102125.69;5058887;28;45358;-45
2022/04/17 06:41:43;;;;;;;;;6.33;5.00;;;;;11.80;37.02;102132.44;5058439;28;47198;-45
2022/04/17 06:44:11;;;;;;;;;6.00;3.00;;;;;11.84;37.03;102131.25;5058437;28;45336;-45
2022/04/17 06:46:37;;;;;;;;;4.00;4.00;;;;;11.83;37.08;102122.41;5058807;28;45432;-44
2022/04/17 06:49:02;;;;;;;;;6.00;3.00;;;;;11.86;37.22;102124.84;5058683;28;45212;-44
2022/04/17 06:51:27;;;;;;;;;5.33;5.00;;;;;11.92;37.20;102128.84;5058496;28;45984;-46
2022/04/17 06:53:53;;;;;;;;;4.67;4.67;;;;;11.99;36.95;102133.56;5058271;28;45402;-46
2022/04/17 06:56:19;;;;;;;;;3.00;3.00;;;;;12.04;36.85;102132.34;5058436;28;45328;-45
2022/04/17 06:58:48;;;;;;;;;6.00;6.00;;;;;11.96;36.91;102103.63;5058525;28;45329;-47
2022/04/17 07:01:15;;;;;;;;;5.67;3.67;;;;;12.19;36.51;102129.31;5058208;28;47248;-45
2022/04/17 07:03:44;;;;;;;;;3.00;3.00;;;;;12.34;36.64;102115.69;5058157;28;45475;-48
2022/04/17 07:06:09;;;;;;;;;6.00;5.33;;;;;12.54;36.11;102111.41;5058331;28;45329;-45
2022/04/17 07:08:34;;;;;;;;;3.67;3.67;;;;;13.53;34.88;102107.56;5058312;28;45417;-44
2022/04/17 07:11:00;;;;;;;;;3.67;3.67;;;;;15.10;33.43;102101.41;5057876;28;45519;-47
2022/04/17 07:13:26;;;;;;;;;4.00;4.00;;;;;16.62;31.21;102103.72;5057974;28;45495;-45
2022/04/17 07:15:51;;;;;;;;;4.00;4.00;;;;;17.82;29.60;102088.81;5058068;28;45442;-48
2022/04/17 07:18:17;;;;;;;;;5.67;4.00;;;;;18.95;28.43;102084.72;5058411;28;45462;-45
2022/04/17 07:20:42;;;;;;;;;5.00;5.00;;;;;19.79;26.23;102072.59;5057605;28;47207;-49
2022/04/17 07:23:08;;;;;;;;;7.33;5.33;;;;;20.53;25.73;102073.06;5058028;28;45341;-45
2022/04/17 07:25:34;;;;;;;;;2.00;2.00;;;;;21.13;24.69;102071.38;5056674;28;45405;-46
2022/04/17 07:28:00;;;;;;;;;7.00;5.00;;;;;21.83;23.60;102059.28;5058102;28;45559;-46
2022/04/17 07:30:29;;;;;;;;;5.00;4.67;;;;;22.68;23.26;102069.41;5057684;28;46181;-50
2022/04/17 07:32:55;;;;;;;;;4.67;4.67;;;;;23.42;22.78;102055.38;5057642;28;45421;-46
2022/04/17 07:35:22;;;;;;;;;7.00;7.00;;;;;24.03;22.10;102066.38;5057848;28;45419;-47
2022/04/17 07:37:59;;;;;;;;;6.50;4.00;;;;;24.39;23.11;102063.34;5057875;28;45387;-46
2022/04/17 07:40:31;;;;;;;;;6.25;5.75;;;;;24.63;22.18;102064.66;5057028;28;47416;-44
2022/04/17 07:42:59;;;;;;;;;5.50;5.00;;;;;24.67;20.51;102037.03;5057287;28;45266;-45
2022/04/17 07:45:25;;;;;;;;;5.75;5.50;;;;;24.91;20.09;102050.00;5057872;28;45313;-50
2022/04/17 07:47:51;;;;;;;;;6.50;6.00;;;;;25.15;20.60;102051.25;5057731;28;45518;-46
2022/04/17 07:50:19;;;;;;;;;5.75;5.75;;;;;25.38;19.80;102046.19;5057338;28;45251;-46
2022/04/17 07:52:44;;;;;;;;;5.25;5.25;;;;;25.54;20.20;102036.72;5057596;28;45452;-44
2022/04/17 07:55:12;;;;;;;;;7.75;4.75;;;;;25.82;19.68;102046.50;5057390;28;45320;-46
2022/04/17 08:00:27;;;;;;;;;5.00;4.75;;;;;25.72;20.56;102043.38;5057232;28;45771;-45
2022/04/17 08:03:07;;;;;;;;;6.60;5.80;;;;;25.57;20.98;102036.28;5057406;28;45299;-44
2022/04/17 08:05:39;;;;;;;;;3.80;3.80;;;;;25.37;20.55;102040.97;5057353;28;45411;-45
2022/04/17 08:08:11;;;;;;;;;4.50;3.75;;;;;25.03;19.80;102029.28;5057438;28;45507;-46
2022/04/17 08:10:37;;;;;;;;;5.60;5.00;;;;;24.89;19.79;102028.44;5057049;28;45361;-46
2022/04/17 08:13:03;;;;;;;;;7.60;6.60;;;;;24.85;22.60;102031.78;5057323;28;45225;-46
2022/04/17 08:15:29;;;;;;;;;6.00;6.00;;;;;25.08;20.09;102031.38;5057145;28;45449;-46
2022/04/17 08:17:54;;;;;;;;;7.00;5.50;;;;;25.32;21.82;102025.25;5057499;28;45328;-46
2022/04/17 08:20:20;;;;;;;;;3.50;3.50;;;;;25.50;19.85;102023.75;5057005;28;45436;-48
2022/04/17 08:22:46;;;;;;;;;3.75;3.50;;;;;25.67;21.19;102014.03;5057166;28;45411;-45
2022/04/17 08:25:12;;;;;;;;;5.75;4.25;;;;;25.85;19.05;102014.19;5055626;28;45294;-48
2022/04/17 08:27:48;;;;;;;;;3.80;3.80;;;;;26.21;19.21;102009.16;5057065;28;45385;-46
2022/04/17 08:30:18;;;;;;;;;4.40;4.40;;;;;26.66;18.11;102003.59;5056843;28;46055;-46
2022/04/17 08:32:43;;;;;;;;;4.00;4.00;;;;;27.17;18.02;102007.97;5056994;28;45578;-46
2022/04/17 08:35:09;;;;;;;;;4.75;4.75;;;;;28.28;19.10;102004.03;5057066;28;45423;-49
2022/04/17 08:37:34;;;;;;;;;6.50;5.75;;;;;30.27;18.79;101995.56;5057328;28;45430;-49
2022/04/17 08:40:00;;;;;;;;;4.00;4.00;;;;;32.46;14.32;101997.63;5056928;28;46398;-46
2022/04/17 08:42:26;;;;;;;;;5.00;5.00;;;;;33.84;13.60;101994.75;5056660;28;45463;-46
2022/04/17 08:44:52;;;;;;;;;6.20;5.80;;;;;35.06;14.24;101991.19;5056851;28;45340;-46
2022/04/17 08:47:18;;;;;;;;;5.50;4.00;;;;;35.87;13.01;101990.84;5057180;28;45470;-46
2022/04/17 08:49:45;;;;;;;;;3.40;3.40;;;;;36.40;10.48;101988.19;5056762;28;46869;-45
2022/04/17 08:52:15;;;;;;;;;3.80;3.80;;;;;37.28;10.14;101949.31;5058580;28;45230;-45
2022/04/17 08:54:42;;;;;;;;;4.40;3.40;;;;;38.30;9.99;101978.31;5060471;28;45347;-45
2022/04/17 08:57:08;;;;;;;;;4.00;4.00;;;;;39.26;9.94;101981.25;5060180;28;45443;-46
2022/04/17 08:59:33;;;;;;;;;5.25;4.75;;;;;40.38;9.54;101983.41;5060182;28;45494;-46
2022/04/17 09:02:07;;;;;;;;;5.00;4.25;;;;;41.02;8.35;101969.94;5060016;28;45397;-51
2022/04/17 09:04:33;;;;;;;;;4.00;3.00;;;;;41.67;8.40;101985.00;5060148;28;45488;-45
2022/04/17 09:07:00;;;;;;;;;3.75;3.00;;;;;42.32;8.29;101981.19;5060393;28;45372;-49
2022/04/17 09:09:25;;;;;;;;;4.00;3.00;;;;;42.70;8.09;101969.25;5058462;28;47258;-46
2022/04/17 09:11:55;;;;;;;;;5.00;2.25;;;;;43.28;8.08;101975.19;5059596;28;45392;-47
2022/04/17 09:14:20;;;;;;;;;3.00;3.00;;;;;43.55;8.05;101968.25;5059898;28;45309;-47
2022/04/17 09:16:51;;;;;;;;;2.50;2.50;;;;;43.86;8.22;101975.44;5060063;28;45319;-44
2022/04/17 09:19:18;;;;;;;;;3.40;3.00;;;;;44.27;7.84;101977.34;5059773;28;47016;-49
2022/04/17 09:21:44;;;;;;;;;5.00;3.00;;;;;44.65;8.00;101970.66;5059610;28;45440;-47
2022/04/17 09:24:18;;;;;;;;;3.75;2.50;;;;;44.98;7.63;101960.09;5059830;28;45451;-43
2022/04/17 09:27:01;;;;;;;;;3.00;3.00;;;;;45.14;5.90;101965.03;5059818;28;45368;-47
2022/04/17 09:29:29;;;;;;;;;1.80;1.80;;;;;44.92;6.43;101958.69;5059559;28;45376;-49
2022/04/17 09:32:08;;;;;;;;;3.80;3.00;;;;;45.60;7.15;101949.59;5059647;28;45525;-47
2022/04/17 09:34:52;;;;;;;;;3.20;3.20;;;;;46.16;6.55;101955.19;5059656;28;45360;-49
2022/04/17 09:37:22;;;;;;;;;4.60;3.40;;;;;46.75;6.76;101948.69;5059898;28;45367;-51
2022/04/17 09:39:50;;;;;;;;;3.60;3.40;;;;;46.95;5.64;101951.59;5059434;28;46218;-48
2022/04/17 09:42:21;;;;;;;;;3.60;3.60;;;;;47.13;6.17;101949.19;5059241;28;45459;-47
2022/04/17 09:44:49;;;;;;;;;4.00;4.00;;;;;47.26;6.82;101948.66;5059788;28;45338;-48
2022/04/17 09:47:21;;;;;;;;;3.00;3.00;;;;;47.41;5.95;101940.53;5058628;28;45402;-49
2022/04/17 09:50:00;;;;;;;;;5.40;4.00;;;;;47.57;6.34;101941.25;5059082;28;45450;-46
2022/04/17 09:52:32;;;;;;;;;5.80;3.80;;;;;47.78;6.01;101940.09;5059207;28;45328;-46
2022/04/17 09:54:59;;;;;;;;;3.20;2.80;;;;;47.96;6.37;101938.44;5059232;28;45306;-45
2022/04/17 09:57:35;;;;;;;;;3.00;3.00;;;;;48.32;6.44;101924.97;5058991;28;45541;-48
2022/04/17 10:00:11;;;;;;;;;3.80;2.20;;;;;48.46;5.27;101923.25;5058981;28;46243;-47
2022/04/17 10:02:38;;;;;;;;;2.00;2.00;;;;;48.12;4.96;101924.22;5057948;28;45323;-45
2022/04/17 10:05:07;;;;;;;;;4.60;2.80;;;;;48.17;5.25;101921.91;5058881;28;45466;-47
2022/04/17 10:07:33;;;;;;;;;1.00;1.00;;;;;48.67;4.91;101904.97;5057838;28;45459;-47
2022/04/17 10:09:59;;;;;;;;;3.80;3.80;;;;;48.84;4.77;101914.94;5058783;28;46894;-47
2022/04/17 10:12:25;;;;;;;;;2.75;2.75;;;;;48.87;5.19;101908.53;5058535;28;45611;-45
2022/04/17 10:14:52;;;;;;;;;2.00;2.00;;;;;49.21;5.26;101898.91;5058940;28;45461;-48
2022/04/17 10:17:22;;;;;;;;;1.20;1.20;;;;;49.60;5.49;101904.25;5058826;28;45598;-48
2022/04/17 10:19:49;;;;;;;;;2.00;2.00;;;;;49.53;6.00;101898.50;5058658;28;46492;-51
2022/04/17 10:22:18;;;;;;;;;5.40;2.60;;;;;49.55;6.29;101892.47;5058661;28;45475;-44
2022/04/17 10:24:51;;;;;;;;;1.60;1.00;;;;;49.61;4.98;101890.94;5058544;28;45527;-43
2022/04/17 10:27:21;;;;;;;;;5.00;2.20;;;;;49.47;4.73;101891.56;5058513;28;45578;-47
2022/04/17 10:29:52;;;;;;;;;2.80;2.80;;;;;49.40;4.23;101885.81;5058643;28;47177;-52
2022/04/17 10:32:32;;;;;;;;;3.80;2.40;;;;;49.26;4.46;101891.28;5058463;28;45526;-45
2022/04/17 10:35:26;;;;;;;;;3.00;1.80;;;;;49.12;4.44;101880.63;5058678;28;45240;-47
2022/04/17 10:38:22;;;;;;;;;1.20;1.20;;;;;49.27;4.32;101875.97;5059208;28;45345;-44
2022/04/17 10:40:54;;;;;;;;;2.00;2.00;;;;;49.39;4.57;101872.88;5058465;28;46928;-46
2022/04/17 10:43:20;;;;;;;;;2.20;2.20;;;;;49.92;5.37;101858.50;5058259;28;45210;-47
2022/04/17 10:46:18;;;;;;;;;3.00;3.00;;;;;49.68;4.22;101857.03;5058668;28;45476;-48
2022/04/17 10:48:44;;;;;;;;;1.80;1.20;;;;;49.97;4.30;101857.34;5058790;28;45265;-48
2022/04/17 10:51:37;;;;;;;;;1.80;1.80;;;;;49.63;4.20;101849.72;5058316;28;45443;-45
2022/04/17 10:54:14;;;;;;;;;2.60;2.60;;;;;49.39;5.02;101847.41;5056000;28;45435;-50
2022/04/17 10:56:41;;;;;;;;;1.20;1.20;;;;;49.93;4.87;101843.16;5058623;28;45336;-48
2022/04/17 10:59:18;;;;;;;;;4.20;2.80;;;;;49.81;5.14;101837.75;5058341;28;45298;-48
2022/04/17 11:01:43;;;;;;;;;3.20;1.20;;;;;49.52;4.58;101837.53;5058177;28;46260;-45
2022/04/17 11:04:38;;;;;;;;;2.50;2.25;;;;;49.06;4.94;101843.41;5058188;28;45337;-46
2022/04/17 11:07:04;;;;;;;;;3.00;2.40;;;;;48.91;4.09;101828.28;5058141;28;45245;-46
2022/04/17 11:09:29;;;;;;;;;0.50;0.00;;;;;48.57;5.03;101826.59;5058509;28;45499;-48
2022/04/17 11:12:17;;;;;;;;;1.75;1.25;;;;;48.64;5.52;101821.84;5058206;28;45461;-46
2022/04/17 11:14:56;;;;;;;;;2.00;1.80;;;;;48.37;4.90;101818.19;5057196;28;45361;-46
2022/04/17 11:17:24;;;;;;;;;3.60;3.00;;;;;48.22;4.04;101811.53;5058143;28;45391;-48
2022/04/17 11:19:54;;;;;;;;;4.80;3.00;;;;;47.81;6.01;101810.44;5057208;28;45465;-46
2022/04/17 11:22:20;;;;;;;;;2.60;2.60;;;;;47.42;5.01;101809.72;5057660;28;46196;-45
2022/04/17 11:24:54;;;;;;;;;3.20;3.20;;;;;46.91;4.57;101802.22;5058034;28;45416;-46
2022/04/17 11:27:32;;;;;;;;;3.80;3.80;;;;;46.92;4.76;101797.38;5057907;28;45490;-46
2022/04/17 11:30:02;;;;;;;;;2.20;1.80;;;;;47.00;4.96;101793.56;5057551;28;45368;-47
2022/04/17 11:32:28;;;;;;;;;4.20;3.00;;;;;46.98;4.80;101785.47;5057390;28;45772;-46
2022/04/17 11:34:56;;;;;;;;;1.40;1.40;;;;;46.60;4.12;101783.44;5057650;28;45325;-47
2022/04/17 11:37:22;;;;;;;;;2.00;2.00;;;;;46.55;4.12;101782.88;5058097;28;45396;-47
2022/04/17 11:39:48;;;;;;;;;2.00;2.00;;;;;45.99;4.89;101776.34;5057855;28;45339;-45
2022/04/17 11:42:14;;;;;;;;;3.40;1.80;;;;;46.10;5.07;101773.78;5055941;28;45548;-47
2022/04/17 11:44:41;;;;;;;;;4.25;3.50;;;;;45.78;5.38;101762.53;5056770;28;45464;-45
2022/04/17 11:47:07;;;;;;;;;2.00;2.00;;;;;45.13;5.16;101761.16;5046023;28;45420;-45